createdAt,value
2019-05-15T00:00:11.587Z,5.17
2019-05-15T00:01:11.589Z,5.15
2019-05-15T00:02:11.577Z,5.08
2019-05-15T00:03:11.576Z,5.03
2019-05-15T00:04:11.578Z,4.97
2019-05-15T00:05:11.575Z,4.98
2019-05-15T00:06:11.586Z,5.01
2019-05-15T00:07:11.577Z,5.00
2019-05-15T00:08:11.592Z,4.99
2019-05-15T00:09:11.581Z,5.02
2019-05-15T00:10:11.574Z,5.03
2019-05-15T00:11:11.577Z,5.04
2019-05-15T00:12:11.567Z,5.10
2019-05-15T00:13:11.569Z,5.13
2019-05-15T00:14:11.578Z,5.17
2019-05-15T00:15:11.577Z,5.20
2019-05-15T00:16:11.582Z,5.22
2019-05-15T00:17:11.568Z,5.21
2019-05-15T00:18:11.567Z,5.23
2019-05-15T00:19:11.568Z,5.21
2019-05-15T00:20:11.565Z,5.21
2019-05-15T00:21:11.580Z,5.23
2019-05-15T00:22:11.570Z,5.23
2019-05-15T00:23:11.571Z,5.25
2019-05-15T00:24:13.198Z,5.26
2019-05-15T00:25:11.565Z,5.27
2019-05-15T00:26:11.572Z,5.27
2019-05-15T00:27:11.565Z,5.27
2019-05-15T00:28:11.560Z,5.28
2019-05-15T00:29:16.068Z,5.28
2019-05-15T00:30:11.561Z,5.26
2019-05-15T00:31:11.568Z,5.26
2019-05-15T00:32:11.561Z,5.24
2019-05-15T00:33:11.558Z,5.22
2019-05-15T00:34:12.767Z,5.23
2019-05-15T00:35:11.563Z,5.20
2019-05-15T00:36:11.570Z,5.18
2019-05-15T00:37:11.558Z,5.15
2019-05-15T00:38:11.554Z,5.13
2019-05-15T00:39:11.554Z,5.09
2019-05-15T00:40:11.556Z,5.10
2019-05-15T00:41:11.591Z,5.13
2019-05-15T00:42:11.555Z,5.11
2019-05-15T00:43:11.553Z,5.10
2019-05-15T00:44:11.555Z,5.12
2019-05-15T00:45:11.554Z,5.12
2019-05-15T00:46:11.552Z,5.12
2019-05-15T00:47:11.555Z,5.13
2019-05-15T00:48:11.554Z,5.10
2019-05-15T00:49:11.584Z,5.10
2019-05-15T00:50:11.550Z,5.12
2019-05-15T00:51:14.630Z,5.14
2019-05-15T00:52:12.292Z,5.15
2019-05-15T00:53:11.548Z,5.13
2019-05-15T00:54:11.553Z,5.14
2019-05-15T00:55:11.546Z,5.11
2019-05-15T00:56:11.545Z,5.11
2019-05-15T00:57:11.551Z,5.11
2019-05-15T00:58:11.548Z,5.07
2019-05-15T00:59:23.162Z,5.03
2019-05-15T01:00:11.544Z,4.95
2019-05-15T01:01:11.543Z,4.91
2019-05-15T01:02:11.549Z,4.92
2019-05-15T01:03:11.542Z,4.99
2019-05-15T01:04:11.545Z,5.01
2019-05-15T01:05:11.545Z,5.02
2019-05-15T01:06:11.538Z,4.99
2019-05-15T01:07:11.549Z,5.01
2019-05-15T01:08:11.541Z,5.00
2019-05-15T01:09:11.537Z,4.98
2019-05-15T01:10:11.540Z,5.00
2019-05-15T01:11:11.536Z,5.01
2019-05-15T01:12:11.546Z,5.02
2019-05-15T01:13:11.537Z,5.02
2019-05-15T01:14:12.280Z,5.00
2019-05-15T01:15:11.540Z,5.04
2019-05-15T01:16:11.533Z,5.05
2019-05-15T01:17:11.535Z,5.07
2019-05-15T01:18:11.536Z,5.07
2019-05-15T01:19:11.537Z,5.03
2019-05-15T01:20:11.535Z,4.99
2019-05-15T01:21:11.532Z,4.98
2019-05-15T01:22:11.539Z,4.94
2019-05-15T01:23:11.530Z,4.90
2019-05-15T01:24:11.536Z,4.86
2019-05-15T01:25:11.528Z,4.83
2019-05-15T01:26:11.528Z,4.81
2019-05-15T01:27:11.569Z,4.77
2019-05-15T01:28:11.528Z,4.76
2019-05-15T01:29:11.526Z,4.77
2019-05-15T01:30:11.526Z,4.81
2019-05-15T01:31:11.526Z,4.80
2019-05-15T01:32:11.540Z,4.81
2019-05-15T01:33:11.569Z,4.78
2019-05-15T01:34:11.526Z,4.74
2019-05-15T01:35:11.540Z,4.75
2019-05-15T01:36:11.523Z,4.74
2019-05-15T01:37:11.525Z,4.73
2019-05-15T01:38:11.527Z,4.68
2019-05-15T01:39:11.520Z,4.63
2019-05-15T01:40:11.520Z,4.59
2019-05-15T01:41:11.520Z,4.55
2019-05-15T01:42:11.517Z,4.54
2019-05-15T01:43:11.521Z,4.53
2019-05-15T01:44:11.518Z,4.55
2019-05-15T01:45:11.516Z,4.59
2019-05-15T01:46:11.515Z,4.61
2019-05-15T01:47:11.521Z,4.63
2019-05-15T01:48:11.523Z,4.64
2019-05-15T01:49:11.513Z,4.63
2019-05-15T01:50:11.514Z,4.65
2019-05-15T01:51:11.512Z,4.66
2019-05-15T01:52:11.517Z,4.64
2019-05-15T01:53:11.522Z,4.63
2019-05-15T01:54:11.516Z,4.62
2019-05-15T01:55:11.518Z,4.60
2019-05-15T01:56:11.510Z,4.56
2019-05-15T01:57:11.511Z,4.53
2019-05-15T01:58:11.522Z,4.50
2019-05-15T01:59:11.508Z,4.51
2019-05-15T02:00:11.513Z,4.51
2019-05-15T02:01:11.508Z,4.48
2019-05-15T02:02:11.508Z,4.43
2019-05-15T02:03:11.517Z,4.39
2019-05-15T02:04:11.504Z,4.36
2019-05-15T02:05:11.506Z,4.30
2019-05-15T02:06:11.506Z,4.31
2019-05-15T02:07:11.507Z,4.31
2019-05-15T02:08:11.513Z,4.35
2019-05-15T02:09:11.504Z,4.41
2019-05-15T02:10:11.504Z,4.45
2019-05-15T02:11:11.500Z,4.43
2019-05-15T02:12:11.504Z,4.44
2019-05-15T02:13:11.505Z,4.43
2019-05-15T02:14:11.510Z,4.41
2019-05-15T02:15:11.502Z,4.34
2019-05-15T02:16:11.499Z,4.31
2019-05-15T02:17:11.499Z,4.29
2019-05-15T02:18:11.506Z,4.27
2019-05-15T02:19:11.500Z,4.21
2019-05-15T02:20:11.501Z,4.14
2019-05-15T02:21:11.500Z,4.08
2019-05-15T02:22:11.495Z,4.08
2019-05-15T02:23:12.034Z,4.09
2019-05-15T02:24:11.497Z,4.11
2019-05-15T02:25:11.492Z,4.15
2019-05-15T02:26:11.492Z,4.14
2019-05-15T02:27:11.494Z,4.18
2019-05-15T02:28:11.493Z,4.23
2019-05-15T02:29:16.105Z,4.22
2019-05-15T02:30:22.714Z,4.23
2019-05-15T02:31:11.491Z,4.29
2019-05-15T02:32:11.489Z,4.32
2019-05-15T02:33:11.489Z,4.35
2019-05-15T02:34:11.494Z,4.34
2019-05-15T02:35:11.489Z,4.37
2019-05-15T02:36:11.482Z,4.39
2019-05-15T02:37:11.487Z,4.36
2019-05-15T02:38:15.204Z,4.31
2019-05-15T02:39:11.503Z,4.36
2019-05-15T02:40:11.499Z,4.44
2019-05-15T02:41:11.487Z,4.46
2019-05-15T02:42:11.487Z,4.44
2019-05-15T02:43:11.485Z,4.39
2019-05-15T02:44:11.497Z,4.34
2019-05-15T02:45:11.483Z,4.30
2019-05-15T02:46:11.488Z,4.27
2019-05-15T02:47:11.483Z,4.26
2019-05-15T02:48:11.481Z,4.26
2019-05-15T02:49:11.495Z,4.27
2019-05-15T02:50:11.542Z,4.27
2019-05-15T02:51:11.484Z,4.22
2019-05-15T02:52:11.481Z,4.21
2019-05-15T02:53:11.481Z,4.20
2019-05-15T02:54:11.487Z,4.16
2019-05-15T02:55:11.479Z,4.16
2019-05-15T02:56:11.479Z,4.15
2019-05-15T02:57:11.477Z,4.14
2019-05-15T02:58:11.493Z,4.14
2019-05-15T02:59:11.520Z,4.14
2019-05-15T03:00:11.492Z,4.13
2019-05-15T03:01:11.488Z,4.15
2019-05-15T03:02:11.473Z,4.18
2019-05-15T03:03:11.471Z,4.14
2019-05-15T03:04:11.486Z,4.11
2019-05-15T03:05:11.468Z,4.08
2019-05-15T03:06:11.473Z,4.04
2019-05-15T03:07:11.470Z,4.04
2019-05-15T03:08:11.470Z,4.01
2019-05-15T03:09:11.476Z,4.00
2019-05-15T03:10:11.467Z,3.99
2019-05-15T03:11:11.469Z,4.00
2019-05-15T03:12:11.468Z,3.99
2019-05-15T03:13:11.489Z,3.97
2019-05-15T03:14:11.468Z,3.97
2019-05-15T03:15:11.474Z,3.97
2019-05-15T03:16:11.464Z,3.96
2019-05-15T03:17:11.464Z,3.98
2019-05-15T03:18:11.461Z,3.95
2019-05-15T03:19:11.483Z,3.88
2019-05-15T03:20:11.534Z,3.86
2019-05-15T03:21:11.462Z,3.89
2019-05-15T03:22:11.462Z,3.93
2019-05-15T03:23:11.459Z,3.94
2019-05-15T03:24:11.459Z,3.90
2019-05-15T03:25:11.476Z,3.84
2019-05-15T03:26:11.463Z,3.83
2019-05-15T03:27:11.462Z,3.76
2019-05-15T03:28:11.456Z,3.75
2019-05-15T03:29:11.458Z,3.79
2019-05-15T03:30:14.083Z,3.88
2019-05-15T03:31:32.667Z,3.95
2019-05-15T03:32:24.974Z,3.98
2019-05-15T03:33:18.578Z,3.96
2019-05-15T03:34:20.611Z,3.90
2019-05-15T03:35:15.079Z,3.90
2019-05-15T03:36:13.489Z,3.97
2019-05-15T03:37:12.760Z,3.99
2019-05-15T03:38:11.453Z,4.00
2019-05-15T03:39:11.450Z,3.95
2019-05-15T03:40:11.466Z,3.92
2019-05-15T03:41:11.454Z,3.93
2019-05-15T03:42:11.450Z,3.91
2019-05-15T03:43:11.447Z,3.89
2019-05-15T03:44:11.450Z,3.87
2019-05-15T03:45:11.460Z,3.83
2019-05-15T03:46:11.450Z,3.78
2019-05-15T03:47:11.446Z,3.72
2019-05-15T03:48:11.449Z,3.73
2019-05-15T03:49:11.457Z,3.72
2019-05-15T03:50:11.448Z,3.76
2019-05-15T03:51:11.446Z,3.73
2019-05-15T03:52:11.482Z,3.69
2019-05-15T03:53:11.443Z,3.64
2019-05-15T03:54:11.448Z,3.57
2019-05-15T03:55:11.452Z,3.54
2019-05-15T03:56:11.446Z,3.53
2019-05-15T03:57:11.454Z,3.49
2019-05-15T03:58:11.441Z,3.46
2019-05-15T03:59:11.441Z,3.45
2019-05-15T04:00:11.447Z,3.46
2019-05-15T04:01:28.366Z,3.50
2019-05-15T04:02:11.440Z,3.54
2019-05-15T04:03:11.445Z,3.58
2019-05-15T04:04:11.436Z,3.62
2019-05-15T04:05:12.290Z,3.63
2019-05-15T04:06:11.436Z,3.64
2019-05-15T04:07:11.441Z,3.64
2019-05-15T04:08:11.548Z,3.68
2019-05-15T04:09:11.434Z,3.70
2019-05-15T04:10:11.715Z,3.66
2019-05-15T04:11:11.434Z,3.62
2019-05-15T04:12:11.439Z,3.60
2019-05-15T04:13:11.440Z,3.66
2019-05-15T04:14:11.429Z,3.71
2019-05-15T04:15:11.429Z,3.72
2019-05-15T04:16:11.431Z,3.80
2019-05-15T04:17:11.431Z,3.89
2019-05-15T04:18:11.437Z,3.92
2019-05-15T04:19:11.433Z,3.94
2019-05-15T04:20:11.446Z,3.98
2019-05-15T04:21:11.439Z,3.97
2019-05-15T04:22:11.427Z,3.98
2019-05-15T04:23:11.444Z,3.98
2019-05-15T04:24:11.423Z,3.96
2019-05-15T04:25:11.423Z,3.98
2019-05-15T04:26:11.428Z,4.00
2019-05-15T04:27:11.490Z,4.01
2019-05-15T04:28:11.427Z,4.02
2019-05-15T04:29:11.423Z,4.02
2019-05-15T04:30:11.422Z,3.98
2019-05-15T04:31:11.432Z,3.95
2019-05-15T04:32:11.422Z,3.95
2019-05-15T04:33:11.444Z,3.95
2019-05-15T04:34:11.421Z,3.98
2019-05-15T04:35:11.420Z,4.01
2019-05-15T04:36:11.438Z,4.04
2019-05-15T04:37:11.414Z,4.06
2019-05-15T04:38:11.415Z,4.10
2019-05-15T04:39:11.422Z,4.11
2019-05-15T04:40:11.416Z,4.09
2019-05-15T04:41:11.423Z,4.10
2019-05-15T04:42:11.738Z,4.11
2019-05-15T04:43:11.422Z,4.15
2019-05-15T04:44:11.411Z,4.15
2019-05-15T04:45:11.412Z,4.15
2019-05-15T04:46:11.447Z,4.15
2019-05-15T04:47:11.418Z,4.16
2019-05-15T04:48:11.410Z,4.18
2019-05-15T04:49:11.422Z,4.19
2019-05-15T04:50:11.413Z,4.22
2019-05-15T04:51:11.427Z,4.24
2019-05-15T04:52:11.413Z,4.27
2019-05-15T04:53:11.405Z,4.31
2019-05-15T04:54:11.516Z,4.33
2019-05-15T04:55:11.407Z,4.37
2019-05-15T04:56:11.408Z,4.38
2019-05-15T04:57:11.409Z,4.39
2019-05-15T04:58:11.408Z,4.42
2019-05-15T04:59:11.436Z,4.45
2019-05-15T05:00:11.416Z,4.47
2019-05-15T05:01:11.412Z,4.49
2019-05-15T05:02:17.265Z,4.50
2019-05-15T05:03:11.404Z,4.52
2019-05-15T05:04:11.398Z,4.55
2019-05-15T05:05:11.398Z,4.55
2019-05-15T05:06:11.404Z,4.55
2019-05-15T05:07:11.413Z,4.57
2019-05-15T05:08:11.398Z,4.59
2019-05-15T05:09:11.397Z,4.63
2019-05-15T05:10:11.400Z,4.70
2019-05-15T05:11:11.398Z,4.74
2019-05-15T05:12:11.405Z,4.79
2019-05-15T05:13:11.398Z,4.83
2019-05-15T05:14:11.425Z,4.88
2019-05-15T05:15:11.395Z,4.90
2019-05-15T05:16:11.395Z,4.92
2019-05-15T05:17:11.405Z,4.95
2019-05-15T05:18:11.502Z,4.97
2019-05-15T05:19:11.403Z,4.99
2019-05-15T05:20:11.391Z,4.97
2019-05-15T05:21:11.389Z,5.01
2019-05-15T05:22:11.393Z,5.04
2019-05-15T05:23:11.390Z,5.07
2019-05-15T05:24:11.389Z,5.09
2019-05-15T05:25:11.388Z,5.11
2019-05-15T05:26:11.390Z,5.14
2019-05-15T05:27:11.398Z,5.21
2019-05-15T05:28:11.388Z,5.25
2019-05-15T05:29:11.412Z,5.27
2019-05-15T05:30:11.384Z,5.31
2019-05-15T05:31:14.119Z,5.34
2019-05-15T05:32:11.396Z,5.37
2019-05-15T05:33:11.391Z,5.40
2019-05-15T05:34:11.389Z,5.43
2019-05-15T05:35:11.384Z,5.45
2019-05-15T05:36:11.386Z,5.49
2019-05-15T05:37:11.388Z,5.52
2019-05-15T05:38:11.381Z,5.52
2019-05-15T05:39:13.615Z,5.53
2019-05-15T05:40:11.380Z,5.53
2019-05-15T05:41:11.382Z,5.54
2019-05-15T05:42:11.395Z,5.56
2019-05-15T05:43:11.380Z,5.57
2019-05-15T05:44:11.375Z,5.60
2019-05-15T05:45:11.376Z,5.65
2019-05-15T05:46:11.386Z,5.70
2019-05-15T05:47:11.375Z,5.75
2019-05-15T05:48:11.379Z,5.77
2019-05-15T05:49:11.376Z,5.79
2019-05-15T05:50:11.374Z,5.81
2019-05-15T05:51:11.379Z,5.84
2019-05-15T05:52:11.371Z,5.86
2019-05-15T05:53:11.394Z,5.86
2019-05-15T05:54:11.378Z,5.88
2019-05-15T05:55:11.371Z,5.92
2019-05-15T05:56:11.371Z,5.94
2019-05-15T05:57:11.366Z,5.98
2019-05-15T05:58:11.379Z,5.98
2019-05-15T05:59:11.374Z,6.01
2019-05-15T06:00:11.381Z,6.05
2019-05-15T06:01:11.367Z,6.09
2019-05-15T06:02:11.366Z,6.07
2019-05-15T06:03:11.373Z,6.06
2019-05-15T06:04:11.420Z,6.08
2019-05-15T06:05:11.366Z,6.08
2019-05-15T06:06:11.371Z,6.09
2019-05-15T06:07:14.222Z,6.11
2019-05-15T06:08:11.374Z,6.11
2019-05-15T06:09:11.367Z,6.12
2019-05-15T06:10:11.365Z,6.13
2019-05-15T06:11:11.359Z,6.11
2019-05-15T06:12:11.364Z,6.10
2019-05-15T06:13:11.370Z,6.11
2019-05-15T06:14:11.359Z,6.14
2019-05-15T06:15:11.361Z,6.18
2019-05-15T06:16:11.358Z,6.25
2019-05-15T06:17:11.358Z,6.32
2019-05-15T06:18:11.369Z,6.39
2019-05-15T06:19:11.357Z,6.44
2019-05-15T06:20:11.358Z,6.46
2019-05-15T06:21:11.355Z,6.46
2019-05-15T06:22:11.354Z,6.45
2019-05-15T06:23:11.362Z,6.49
2019-05-15T06:24:13.113Z,6.53
2019-05-15T06:25:11.893Z,6.52
2019-05-15T06:26:11.352Z,6.59
2019-05-15T06:27:11.358Z,6.70
2019-05-15T06:28:11.359Z,6.78
2019-05-15T06:29:11.358Z,6.83
2019-05-15T06:30:19.415Z,6.86
2019-05-15T06:31:11.352Z,6.87
2019-05-15T06:32:11.348Z,6.88
2019-05-15T06:33:13.494Z,6.87
2019-05-15T06:34:11.354Z,6.84
2019-05-15T06:35:11.347Z,6.82
2019-05-15T06:36:11.347Z,6.82
2019-05-15T06:37:11.345Z,6.83
2019-05-15T06:38:11.349Z,6.85
2019-05-15T06:39:11.349Z,6.88
2019-05-15T06:40:11.345Z,6.94
2019-05-15T06:41:11.351Z,7.02
2019-05-15T06:42:11.352Z,7.07
2019-05-15T06:43:11.345Z,7.13
2019-05-15T06:44:11.389Z,7.18
2019-05-15T06:45:11.352Z,7.23
2019-05-15T06:46:11.344Z,7.28
2019-05-15T06:47:11.344Z,7.33
2019-05-15T06:48:11.352Z,7.40
2019-05-15T06:49:11.341Z,7.46
2019-05-15T06:50:11.336Z,7.53
2019-05-15T06:51:11.343Z,7.58
2019-05-15T06:52:11.340Z,7.62
2019-05-15T06:53:11.337Z,7.61
2019-05-15T06:54:11.345Z,7.60
2019-05-15T06:55:11.337Z,7.59
2019-05-15T06:56:11.335Z,7.63
2019-05-15T06:57:11.336Z,7.66
2019-05-15T06:58:11.337Z,7.69
2019-05-15T06:59:11.337Z,7.66
2019-05-15T07:00:11.334Z,7.67
2019-05-15T07:01:11.331Z,7.69
2019-05-15T07:02:11.333Z,7.71
2019-05-15T07:03:21.403Z,7.70
2019-05-15T07:04:11.336Z,7.64
2019-05-15T07:05:11.328Z,7.57
2019-05-15T07:06:11.329Z,7.56
2019-05-15T07:07:11.366Z,7.57
2019-05-15T07:08:11.327Z,7.60
2019-05-15T07:09:11.468Z,7.68
2019-05-15T07:10:11.338Z,7.81
2019-05-15T07:11:11.328Z,7.90
2019-05-15T07:12:11.326Z,7.92
2019-05-15T07:13:11.325Z,7.92
2019-05-15T07:14:11.376Z,7.94
2019-05-15T07:15:11.324Z,7.99
2019-05-15T07:16:11.323Z,7.97
2019-05-15T07:17:11.327Z,7.93
2019-05-15T07:18:11.323Z,7.90
2019-05-15T07:19:11.331Z,7.97
2019-05-15T07:20:11.370Z,8.04
2019-05-15T07:21:11.323Z,8.06
2019-05-15T07:22:11.320Z,8.05
2019-05-15T07:23:11.321Z,8.09
2019-05-15T07:24:11.319Z,8.16
2019-05-15T07:25:11.323Z,8.36
2019-05-15T07:26:11.321Z,8.76
2019-05-15T07:27:11.321Z,9.30
2019-05-15T07:28:11.319Z,9.82
2019-05-15T07:29:11.315Z,10.23
2019-05-15T07:30:12.349Z,10.67
2019-05-15T07:31:11.799Z,11.13
2019-05-15T07:32:11.319Z,11.29
2019-05-15T07:33:11.314Z,11.24
2019-05-15T07:34:12.012Z,11.22
2019-05-15T07:35:11.322Z,10.97
2019-05-15T07:36:11.314Z,10.58
2019-05-15T07:37:11.310Z,10.31
2019-05-15T07:38:11.320Z,10.27
2019-05-15T07:39:11.312Z,10.57
2019-05-15T07:40:11.309Z,11.18
2019-05-15T07:41:11.330Z,11.95
2019-05-15T07:42:11.313Z,12.47
2019-05-15T07:43:11.307Z,12.74
2019-05-15T07:44:11.305Z,12.83
2019-05-15T07:45:11.312Z,12.93
2019-05-15T07:46:11.306Z,13.00
2019-05-15T07:47:11.305Z,12.99
2019-05-15T07:48:11.312Z,13.03
2019-05-15T07:49:11.304Z,13.14
2019-05-15T07:50:11.316Z,13.40
2019-05-15T07:51:11.920Z,13.27
2019-05-15T07:52:11.305Z,13.38
2019-05-15T07:53:11.300Z,13.35
2019-05-15T07:54:11.301Z,13.31
2019-05-15T07:55:11.326Z,13.32
2019-05-15T07:56:12.348Z,13.19
2019-05-15T07:57:11.306Z,13.25
2019-05-15T07:58:11.299Z,13.26
2019-05-15T07:59:11.304Z,13.26
2019-05-15T08:00:11.305Z,13.39
2019-05-15T08:01:11.296Z,13.68
2019-05-15T08:02:11.295Z,13.94
2019-05-15T08:03:11.298Z,14.26
2019-05-15T08:04:24.727Z,14.42
2019-05-15T08:05:11.301Z,14.29
2019-05-15T08:06:11.299Z,14.12
2019-05-15T08:07:11.301Z,14.17
2019-05-15T08:08:11.294Z,14.30
2019-05-15T08:09:11.294Z,14.31
2019-05-15T08:10:11.322Z,14.48
2019-05-15T08:11:20.274Z,14.65
2019-05-15T08:12:11.306Z,14.60
2019-05-15T08:13:11.288Z,14.35
2019-05-15T08:14:11.297Z,14.01
2019-05-15T08:15:11.291Z,13.75
2019-05-15T08:16:11.288Z,13.63
2019-05-15T08:17:11.287Z,13.26
2019-05-15T08:18:13.012Z,12.92
2019-05-15T08:19:11.288Z,12.54
2019-05-15T08:20:11.288Z,12.37
2019-05-15T08:21:11.290Z,12.05
2019-05-15T08:22:11.291Z,11.70
2019-05-15T08:23:11.283Z,11.42
2019-05-15T08:24:11.283Z,11.00
2019-05-15T08:25:16.172Z,10.56
2019-05-15T08:26:11.296Z,10.26
2019-05-15T08:27:11.276Z,10.02
2019-05-15T08:28:11.281Z,9.94
2019-05-15T08:29:11.280Z,9.89
2019-05-15T08:30:11.280Z,9.84
2019-05-15T08:31:11.301Z,9.79
2019-05-15T08:32:11.286Z,9.81
2019-05-15T08:33:11.315Z,9.92
2019-05-15T08:34:16.035Z,10.01
2019-05-15T08:35:12.765Z,10.05
2019-05-15T08:36:11.283Z,9.98
2019-05-15T08:37:11.275Z,9.91
2019-05-15T08:38:14.249Z,9.82
2019-05-15T08:39:11.273Z,9.87
2019-05-15T08:40:11.303Z,9.91
2019-05-15T08:41:11.750Z,9.99
2019-05-15T08:42:11.282Z,10.02
2019-05-15T08:43:11.685Z,10.08
2019-05-15T08:44:11.273Z,10.14
2019-05-15T08:45:11.273Z,10.17
2019-05-15T08:46:11.288Z,10.18
2019-05-15T08:47:11.272Z,10.12
2019-05-15T08:48:11.273Z,9.99
2019-05-15T08:49:11.267Z,10.04
2019-05-15T08:50:11.268Z,10.08
2019-05-15T08:51:11.273Z,10.08
2019-05-15T08:52:11.275Z,10.04
2019-05-15T08:53:11.269Z,10.02
2019-05-15T08:54:11.266Z,10.09
2019-05-15T08:55:11.267Z,10.18
2019-05-15T08:56:14.692Z,10.18
2019-05-15T08:57:11.264Z,10.24
2019-05-15T08:58:14.087Z,10.26
2019-05-15T08:59:11.268Z,10.30
2019-05-15T09:00:11.266Z,10.27
2019-05-15T09:01:11.283Z,10.14
2019-05-15T09:02:11.263Z,10.19
2019-05-15T09:03:11.260Z,10.27
2019-05-15T09:04:26.183Z,10.33
2019-05-15T09:05:11.285Z,10.42
2019-05-15T09:06:11.258Z,10.51
2019-05-15T09:07:11.261Z,10.65
2019-05-15T09:08:11.268Z,10.85
2019-05-15T09:09:11.257Z,10.96
2019-05-15T09:10:11.256Z,11.02
2019-05-15T09:11:11.259Z,11.07
2019-05-15T09:12:11.258Z,11.08
2019-05-15T09:13:11.273Z,11.03
2019-05-15T09:14:11.253Z,11.02
2019-05-15T09:15:11.252Z,11.05
2019-05-15T09:16:11.257Z,11.06
2019-05-15T09:17:11.255Z,11.07
2019-05-15T09:18:15.891Z,11.11
2019-05-15T09:19:11.252Z,11.12
2019-05-15T09:20:11.250Z,11.09
2019-05-15T09:21:11.248Z,11.06
2019-05-15T09:22:11.266Z,11.08
2019-05-15T09:23:11.255Z,11.08
2019-05-15T09:24:11.250Z,11.07
2019-05-15T09:25:11.247Z,11.09
2019-05-15T09:26:11.247Z,11.16
2019-05-15T09:27:11.267Z,11.19
2019-05-15T09:28:11.245Z,11.15
2019-05-15T09:29:11.240Z,11.01
2019-05-15T09:30:11.243Z,10.98
2019-05-15T09:31:11.274Z,11.04
2019-05-15T09:32:12.601Z,11.08
2019-05-15T09:33:11.242Z,11.14
2019-05-15T09:34:11.262Z,11.13
2019-05-15T09:35:11.241Z,11.17
2019-05-15T09:36:11.242Z,11.26
2019-05-15T09:37:11.248Z,11.41
2019-05-15T09:38:11.241Z,11.42
2019-05-15T09:39:13.393Z,11.28
2019-05-15T09:40:11.237Z,11.07
2019-05-15T09:41:11.237Z,10.95
2019-05-15T09:42:11.245Z,11.02
2019-05-15T09:43:11.626Z,11.19
2019-05-15T09:44:11.238Z,11.28
2019-05-15T09:45:11.241Z,11.32
2019-05-15T09:46:11.235Z,11.35
2019-05-15T09:47:11.244Z,11.41
2019-05-15T09:48:14.608Z,11.39
2019-05-15T09:49:11.235Z,11.33
2019-05-15T09:50:11.242Z,11.44
2019-05-15T09:51:11.241Z,11.61
2019-05-15T09:52:11.243Z,11.73
2019-05-15T09:53:11.233Z,11.81
2019-05-15T09:54:11.230Z,11.85
2019-05-15T09:55:11.228Z,11.82
2019-05-15T09:56:11.229Z,11.78
2019-05-15T09:57:11.390Z,11.81
2019-05-15T09:58:11.231Z,11.89
2019-05-15T09:59:11.233Z,11.91
2019-05-15T10:00:11.239Z,11.96
2019-05-15T10:01:11.225Z,12.06
2019-05-15T10:02:11.238Z,12.09
2019-05-15T10:03:11.225Z,12.11
2019-05-15T10:04:11.224Z,12.17
2019-05-15T10:05:11.692Z,12.22
2019-05-15T10:06:11.226Z,12.30
2019-05-15T10:07:11.225Z,12.34
2019-05-15T10:08:11.233Z,12.34
2019-05-15T10:09:11.221Z,12.37
2019-05-15T10:10:11.220Z,12.41
2019-05-15T10:11:11.224Z,12.43
2019-05-15T10:12:11.222Z,12.51
2019-05-15T10:13:11.221Z,12.54
2019-05-15T10:14:11.217Z,12.45
2019-05-15T10:15:11.814Z,12.35
2019-05-15T10:16:11.217Z,12.24
2019-05-15T10:17:11.216Z,12.26
2019-05-15T10:18:11.228Z,12.29
2019-05-15T10:19:11.221Z,12.29
2019-05-15T10:20:11.213Z,12.32
2019-05-15T10:21:11.223Z,12.28
2019-05-15T10:22:11.213Z,12.26
2019-05-15T10:23:11.220Z,12.22
2019-05-15T10:24:11.211Z,12.19
2019-05-15T10:25:11.219Z,12.28
2019-05-15T10:26:13.768Z,12.34
2019-05-15T10:27:11.210Z,12.32
2019-05-15T10:28:11.212Z,12.23
2019-05-15T10:29:11.217Z,12.23
2019-05-15T10:30:11.209Z,12.24
2019-05-15T10:31:11.209Z,12.31
2019-05-15T10:32:11.213Z,12.45
2019-05-15T10:33:11.211Z,12.65
2019-05-15T10:34:11.208Z,12.89
2019-05-15T10:35:24.371Z,13.02
2019-05-15T10:36:11.205Z,13.05
2019-05-15T10:37:11.202Z,13.12
2019-05-15T10:38:11.210Z,13.26
2019-05-15T10:39:11.387Z,13.22
2019-05-15T10:40:11.202Z,13.19
2019-05-15T10:41:15.140Z,13.23
2019-05-15T10:42:11.203Z,13.38
2019-05-15T10:43:11.219Z,13.32
2019-05-15T10:44:11.211Z,13.28
2019-05-15T10:45:11.202Z,13.26
2019-05-15T10:46:13.115Z,13.33
2019-05-15T10:47:11.198Z,13.42
2019-05-15T10:48:11.252Z,13.36
2019-05-15T10:49:11.211Z,13.37
2019-05-15T10:50:11.195Z,13.48
2019-05-15T10:51:11.198Z,13.60
2019-05-15T10:52:11.447Z,13.69
2019-05-15T10:53:11.413Z,13.73
2019-05-15T10:54:11.194Z,13.69
2019-05-15T10:55:11.195Z,13.65
2019-05-15T10:56:11.195Z,13.64
2019-05-15T10:57:11.194Z,13.62
2019-05-15T10:58:14.119Z,13.58
2019-05-15T10:59:11.193Z,13.43
2019-05-15T11:00:11.192Z,13.32
2019-05-15T11:01:11.564Z,13.29
2019-05-15T11:02:11.190Z,13.08
2019-05-15T11:03:11.187Z,13.00
2019-05-15T11:04:11.190Z,12.92
2019-05-15T11:05:11.207Z,12.97
2019-05-15T11:06:11.187Z,13.22
2019-05-15T11:07:11.195Z,13.35
2019-05-15T11:08:11.187Z,13.39
2019-05-15T11:09:11.188Z,13.41
2019-05-15T11:10:11.191Z,13.44
2019-05-15T11:11:11.185Z,13.38
2019-05-15T11:12:11.187Z,13.35
2019-05-15T11:13:11.225Z,13.41
2019-05-15T11:14:11.219Z,13.50
2019-05-15T11:15:11.530Z,13.58
2019-05-15T11:16:11.180Z,13.68
2019-05-15T11:17:11.191Z,13.71
2019-05-15T11:18:11.185Z,13.79
2019-05-15T11:19:11.192Z,13.93
2019-05-15T11:20:11.178Z,14.05
2019-05-15T11:21:11.200Z,14.19
2019-05-15T11:22:11.181Z,14.46
2019-05-15T11:23:11.178Z,14.87
2019-05-15T11:24:11.200Z,15.23
2019-05-15T11:25:11.179Z,15.32
2019-05-15T11:26:11.329Z,15.36
2019-05-15T11:27:11.203Z,15.36
2019-05-15T11:28:11.174Z,15.16
2019-05-15T11:29:11.186Z,15.07
2019-05-15T11:30:11.175Z,14.96
2019-05-15T11:31:11.173Z,14.83
2019-05-15T11:32:11.171Z,14.62
2019-05-15T11:33:11.172Z,14.38
2019-05-15T11:34:11.175Z,14.31
2019-05-15T11:35:11.176Z,14.43
2019-05-15T11:36:11.171Z,14.61
2019-05-15T11:37:11.170Z,14.66
2019-05-15T11:38:11.201Z,14.71
2019-05-15T11:39:11.168Z,14.71
2019-05-15T11:40:11.498Z,14.81
2019-05-15T11:41:11.171Z,14.88
2019-05-15T11:42:11.168Z,14.88
2019-05-15T11:43:11.174Z,14.99
2019-05-15T11:44:11.164Z,15.05
2019-05-15T11:45:11.175Z,15.19
2019-05-15T11:46:11.165Z,15.38
2019-05-15T11:47:11.174Z,15.53
2019-05-15T11:48:11.163Z,15.47
2019-05-15T11:49:11.168Z,15.35
2019-05-15T11:50:11.166Z,15.45
2019-05-15T11:51:11.162Z,15.54
2019-05-15T11:52:11.170Z,15.62
2019-05-15T11:53:11.163Z,15.65
2019-05-15T11:54:11.163Z,15.60
2019-05-15T11:55:11.167Z,15.43
2019-05-15T11:56:11.156Z,15.47
2019-05-15T11:57:11.159Z,15.59
2019-05-15T11:58:11.172Z,15.68
2019-05-15T11:59:11.214Z,15.63
2019-05-15T12:00:17.239Z,15.49
2019-05-15T12:01:11.155Z,15.29
2019-05-15T12:02:11.155Z,15.16
2019-05-15T12:03:11.155Z,15.04
2019-05-15T12:04:25.435Z,15.06
2019-05-15T12:05:11.159Z,14.99
2019-05-15T12:06:18.513Z,14.85
2019-05-15T12:07:11.152Z,14.80
2019-05-15T12:08:12.634Z,14.86
2019-05-15T12:09:11.150Z,14.92
2019-05-15T12:10:11.241Z,14.95
2019-05-15T12:11:27.027Z,15.01
2019-05-15T12:12:11.148Z,15.03
2019-05-15T12:13:11.149Z,15.07
2019-05-15T12:14:11.150Z,15.08
2019-05-15T12:15:11.197Z,15.03
2019-05-15T12:16:11.360Z,15.07
2019-05-15T12:17:15.234Z,15.13
2019-05-15T12:18:11.146Z,15.19
2019-05-15T12:19:16.966Z,15.35
2019-05-15T12:20:11.843Z,15.40
2019-05-15T12:21:11.271Z,15.27
2019-05-15T12:22:11.191Z,15.13
2019-05-15T12:23:11.384Z,14.99
2019-05-15T12:24:11.146Z,14.89
2019-05-15T12:25:11.142Z,14.91
2019-05-15T12:26:11.145Z,14.85
2019-05-15T12:27:17.669Z,14.82
2019-05-15T12:28:11.146Z,14.84
2019-05-15T12:29:11.157Z,15.07
2019-05-15T12:30:11.139Z,15.26
2019-05-15T12:31:11.148Z,15.34
2019-05-15T12:33:11.144Z,15.51
2019-05-15T12:34:11.176Z,15.60
2019-05-15T12:35:11.138Z,15.71
2019-05-15T12:36:11.237Z,15.70
2019-05-15T12:37:11.133Z,15.48
2019-05-15T12:38:11.140Z,15.34
2019-05-15T12:39:13.775Z,15.30
2019-05-15T12:59:41.377Z,16.33
2019-05-15T13:00:11.120Z,16.14
2019-05-15T13:01:16.861Z,16.08
2019-05-15T13:02:11.121Z,16.13
2019-05-15T13:03:11.118Z,16.37
2019-05-15T13:04:11.124Z,16.59
2019-05-15T13:05:11.118Z,16.47
2019-05-15T13:06:11.133Z,16.27
2019-05-15T13:07:15.948Z,16.26
2019-05-15T13:08:11.121Z,16.41
2019-05-15T13:09:11.119Z,16.48
2019-05-15T13:10:11.119Z,16.37
2019-05-15T13:11:14.967Z,16.36
2019-05-15T13:12:11.119Z,16.58
2019-05-15T13:13:11.112Z,16.50
2019-05-15T13:14:11.112Z,16.45
2019-05-15T13:15:11.115Z,16.52
2019-05-15T13:16:11.130Z,16.61
2019-05-15T13:17:11.109Z,16.60
2019-05-15T13:18:14.379Z,16.56
2019-05-15T13:19:11.111Z,16.42
2019-05-15T13:20:11.111Z,16.38
2019-05-15T13:21:11.126Z,16.43
2019-05-15T13:22:17.646Z,16.43
2019-05-15T13:23:11.111Z,16.49
2019-05-15T13:24:11.106Z,16.66
2019-05-15T13:25:11.106Z,16.78
2019-05-15T13:26:23.000Z,16.79
2019-05-15T13:27:11.109Z,16.70